Santa Fe, MO (65282)

2:16 PM CDT on September 01, 2014 (GMT -0500)
APRSWXNET Mexico MO US | Change Station
CLOSE
Current Station
Personal Weather Station
Location: Mexico, MO
Elevation: 751 ft
Nearby Weather Stations

Elev 751 ft 39.17 °N, 91.87 °W | Updated 42 minutes ago

Partly Cloudy
Partly Cloudy
81 °F
Feels Like 84 °F
N
1
Wind Variable Wind from WSW
Gusts 8.0 mph

Today
High -- | Low -- °F
--% Chance of Precip.
Yesterday
High -- | Low -- °F
Precip. -- in
6:35 AM 7:38 PM
Waxing Crescent, 43% visible
Pressure 29.89 in
Visibility 10.0 miles
Clouds Scattered Clouds 2800 ft
Scattered Clouds 3500 ft
Heat Index 84 °F
Dew Point 68 °F
Humidity 65%
Rainfall 0.00 in
Snow Depth Not available.
UV 7 out of 12
Pollen 5.90 out of 12
Air Quality Not available.
Flu Activity Not available.
METAR KHAE 011855Z AUTO 23009KT 10SM SCT028 SCT035 27/17 A2989 RMK AO2

More Conditions Fewer Conditions

Pressure 29.89 in
Visibility 10.0 miles
Clouds Scattered Clouds 2800 ft
Scattered Clouds 3500 ft
Heat Index 84 °F
Dew Point 68 °F
Humidity 65%
Rainfall 0.00 in
Snow Depth Not available.
UV 7 out of 12
Pollen 5.90 out of 12
Air Quality Not available.
Flu Activity Not available.
METAR KHAE 011855Z AUTO 23009KT 10SM SCT028 SCT035 27/17 A2989 RMK AO2

More Conditions Fewer Conditions

10-Day Weather Forecast

Almanac

Astronomy

Sep. 01, 2014 Rise Set
Actual Time 6:35 AM CDT 7:38 PM CDT
Civil Twilight 6:08 AM CDT 8:05 PM CDT
Nautical Twilight 5:35 AM CDT 8:38 PM CDT
Astronomical Twilight 5:01 AM CDT 9:12 PM CDT
Moon 1:19 PM CDT 11:41 PM CDT
Length of Visible Light 13h 57m
Length of Day
13h 02m
Tomorrow will be 2m 29s shorter.
Waxing Crescent, 43% of the Moon is Illuminated
Today
Waxing Crescent
Sep 2
First Quarter
Sep 8
Full
Sep 15
Last Quarter
Sep 24
New

Today's Extremes

State Highs State Lows

Community

WunderPhotos

Upload Photos

1,749,373 photos uploaded!

WunderBlogs® & News

Nearby

Snow Depth

Station Depth Elevation
No new snow has been reported.

Earthquake Activity

City Distance Mag. Time & Date
No recent earthquake activity has been reported nearby.
Minimum magnitude displayed is 2.5.

Coastal Water Temperatures

Place Temperature
No Stations Reporting

Nearby Weather Stations